Flight Track Log - Related Links

Times and Time Zones

All times are in EDT time to prevent confusion due to time zone crossing. See the POE385 flight status page for this flight to view local times or setup timezone preferences in your user account.

Time Position Orientation Groundspeed Altitude Reporting Facility
EDT Latitude Longitude Course Direction KTS MPH feet Rate Location/Type
Fri 11:22:15 AM 43.4983 -79.5772 64° Northeast  Level FlightAware
Fri 11:23:15 AM 43.4365 -79.6582 55° Northeast  Level FlightAware
Fri 11:24:15 AM 43.3960 -79.7616 57° Northeast  Level FlightAware
Fri 11:25:15 AM 43.5500 -79.4333 194° South 210 242 3,200  Level Toronto Center
Fri 11:26:15 AM 43.5000 -79.4500 224° Southwest 240 276 4,900 1,800 Climbing Toronto Center
Fri 11:27:15 AM 43.4500 -79.5167 235° Southwest 240 276 6,800 1,550 Climbing Toronto Center
Fri 11:28:15 AM 43.4000 -79.6167 241° Southwest 250 288 8,000 800 Climbing Toronto Center
Fri 11:29:15 AM 43.3667 -79.7000 236° Southwest 270 311 8,400 700 Climbing Toronto Center
Fri 11:30:15 AM 43.3167 -79.8000 224° Southwest 290 334 9,400 1,000 Climbing Toronto Center
Fri 11:31:15 AM 43.2667 -79.8667 240° Southwest 300 345 10,400 1,000 Climbing Toronto Center
Fri 11:32:15 AM 43.2167 -79.9833 231° Southwest 310 357 11,400 1,000 Climbing Toronto Center
Fri 11:33:15 AM 43.1667 -80.0667 236° Southwest 310 357 12,400 1,000 Climbing Toronto Center
Fri 11:34:15 AM 43.1167 -80.1667 222° Southwest 300 345 13,400 1,000 Climbing Toronto Center
Fri 11:35:15 AM 43.0500 -80.2500 231° Southwest 300 345 14,400 1,000 Climbing Toronto Center
Fri 11:36:15 AM 43.0000 -80.3333 236° Southwest 310 357 15,400 950 Climbing Toronto Center
Fri 11:37:15 AM 42.9500 -80.4333 231° Southwest 300 345 16,300 1,050 Climbing Toronto Center
Fri 11:38:15 AM 42.9000 -80.5167 236° Southwest 300 345 17,500 1,000 Climbing Toronto Center
Fri 11:39:15 AM 42.8500 -80.6167 243° Southwest 300 345 18,300 865 Climbing Toronto Center
Fri 11:39:59 AM 42.8269 -80.6794 234° Southwest 295 339 19,000 981 Climbing Cleveland Center
Fri 11:40:59 AM 42.7747 -80.7756 230° Southwest 295 339 20,000 1,000 Climbing Cleveland Center
Fri 11:41:59 AM 42.7267 -80.8544 240° Southwest 290 334 21,000 950 Climbing Cleveland Center
Fri 11:42:59 AM 42.6889 -80.9419 250° West 285 328 21,900 500 Climbing Cleveland Center
Fri 11:43:59 AM 42.6614 -81.0461 246° West 280 322 22,000 50 Climbing Cleveland Center
Fri 11:44:59 AM 42.6275 -81.1503 246° West 294 338 22,000  Level Cleveland Center
Fri 11:45:59 AM 42.5917 -81.2572 248° West 307 353 22,000  Level Cleveland Center
Fri 11:46:59 AM 42.5575 -81.3725 248° West 324 373 22,000  Level Cleveland Center
Fri 11:47:59 AM 42.5233 -81.4847 247° West 329 379 22,000  Level Cleveland Center
Fri 11:48:59 AM 42.4869 -81.5994 247° West 337 388 22,000  Level Cleveland Center
Fri 11:49:59 AM 42.4506 -81.7144 248° West 328 377 22,000  Level Cleveland Center
Fri 11:50:59 AM 42.4139 -81.8347 246° West 335 386 22,000  Level Cleveland Center
Fri 11:51:59 AM 42.3814 -81.9325 248° West 329 379 22,000  Level Cleveland Center
Fri 11:52:59 AM 42.3467 -82.0467 246° West 329 379 22,000 450 Level Cleveland Center
Fri 11:53:59 AM 42.3075 -82.1667 246° West 327 376 22,900 500 Climbing Cleveland Center
Fri 11:54:59 AM 42.2728 -82.2725 247° West 316 364 23,000 400 Climbing Cleveland Center
Fri 11:55:59 AM 42.2397 -82.3753 247° West 310 357 23,700 500 Climbing Cleveland Center
Fri 11:56:59 AM 42.2069 -82.4781 246° West 310 357 24,000 150 Climbing Cleveland Center
Fri 11:57:59 AM 42.1761 -82.5725 248° West 310 357 24,000  Level Cleveland Center
Fri 11:58:59 AM 42.1453 -82.6750 244° Southwest 310 357 24,000  Level Cleveland Center
Fri 11:59:59 AM 42.1056 -82.7858 247° West 315 362 24,000  Level Cleveland Center
Fri 12:00:59 PM 42.0722 -82.8936 247° West 315 362 24,000  Level Cleveland Center
Fri 12:01:59 PM 42.0367 -83.0042 245° Southwest 315 362 24,000  Level Cleveland Center
Fri 12:02:59 PM 41.9964 -83.1228 246° West 315 362 24,000  Level Cleveland Center
Fri 12:03:59 PM 41.9583 -83.2358 246° West 315 362 24,000  Level Cleveland Center
Fri 12:04:59 PM 41.9225 -83.3433 245° Southwest 326 375 24,000  Level Cleveland Center
Fri 12:05:59 PM 41.8844 -83.4533 246° West 326 375 24,000  Level Cleveland Center
Fri 12:06:59 PM 41.8483 -83.5631 245° Southwest 326 375 24,000  Level Cleveland Center
Fri 12:07:59 PM 41.8097 -83.6756 247° West 332 382 24,000  Level Cleveland Center
Fri 12:08:59 PM 41.7781 -83.7742 244° Southwest 332 382 24,000  Level Cleveland Center
Fri 12:09:59 PM 41.7394 -83.8808 246° West 327 376 24,000  Level Cleveland Center
Fri 12:10:59 PM 41.7028 -83.9931 244° Southwest 332 382 24,000  Level Cleveland Center
Fri 12:11:59 PM 41.6642 -84.0994 246° West 332 382 24,000  Level Cleveland Center
Fri 12:12:59 PM 41.6272 -84.2114 245° Southwest 332 382 24,000  Level Cleveland Center
Fri 12:13:59 PM 41.5883 -84.3203 246° West 332 382 24,000  Level Cleveland Center
Fri 12:14:59 PM 41.5467 -84.4428 251° West 332 382 24,000  Level Cleveland Center
Fri 12:17:20 PM 41.4803 -84.6956 274° West 329 379 24,000  Level Chicago Center
Fri 12:18:20 PM 41.4872 -84.8144 273° West 314 361 24,000  Level Chicago Center
Fri 12:19:20 PM 41.4919 -84.9333 273° West 327 376 24,000  Level Chicago Center
Fri 12:20:20 PM 41.4964 -85.0494 271° West 327 376 24,000  Level Chicago Center
Fri 12:21:20 PM 41.4986 -85.1686 273° West 327 376 24,000  Level Chicago Center
Fri 12:22:20 PM 41.5033 -85.3014 273° West 327 376 24,000 -550 Level Chicago Center
Fri 12:23:20 PM 41.5075 -85.4206 273° West 327 376 22,900 -1,350 Descending Chicago Center
Fri 12:24:20 PM 41.5119 -85.5533 273° West 332 382 21,300 -1,600 Descending Chicago Center
Fri 12:25:20 PM 41.5164 -85.6833 272° West 350 403 19,700 -1,600 Descending Chicago Center
Fri 12:26:20 PM 41.5206 -85.8164 271° West 355 409 18,100 -1,650 Descending Chicago Center
Fri 12:27:20 PM 41.5225 -85.9494 274° West 360 414 16,400 -1,500 Descending Chicago Center
Fri 12:28:20 PM 41.5278 -86.0628 268° West 360 414 15,100 -1,400 Descending Chicago Center
Fri 12:29:20 PM 41.5250 -86.1850 269° West 349 402 13,600 -1,500 Descending Chicago Center
Fri 12:30:20 PM 41.5239 -86.3017 272° West 338 389 12,100 -1,400 Descending Chicago Center
Fri 12:31:20 PM 41.5275 -86.4319 266° West 327 376 10,800 -950 Descending Chicago Center
Fri 12:32:20 PM 41.5219 -86.5431 270° West 320 368 10,200 -400 Descending Chicago Center
Fri 12:33:20 PM 41.5225 -86.6569 270° West 309 356 10,000 -500 Descending Chicago Center
Fri 12:34:20 PM 41.5228 -86.7622 265° West 304 350 9,200 -800 Descending Chicago Center
Fri 12:35:20 PM 41.5167 -86.8622 270° West 294 338 8,400 -800 Descending Chicago Center
Fri 12:36:20 PM 41.5167 -86.9594 277° West 283 326 7,600 -850 Descending Chicago Center
Fri 12:37:20 PM 41.5250 -87.0561 275° West 271 312 6,700 -809 Descending Chicago Center
Fri 12:38:41 PM 41.5333 -87.1833 283° West 260 299 5,700 -723 Descending Chicago TRACON
Fri 12:39:41 PM 41.5500 -87.2833 270° West 265 305 5,000 -789 Descending Chicago TRACON
Fri 12:40:35 PM 41.5500 -87.3667 283° West 279 321 4,200 -526 Descending Chicago TRACON
Fri 12:41:35 PM 41.5667 -87.4667 270° West 269 310 4,000 -95 Descending Chicago TRACON
Fri 12:42:41 PM 41.5667 -87.5833 298° West 267 307 4,000  Level Chicago TRACON
Fri 12:43:35 PM 41.6000 -87.6667 255° West 266 306 4,000  Level Chicago TRACON
Fri 12:44:35 PM 41.5833 -87.7500 270° West 250 288 4,000  Level Chicago TRACON
Fri 12:45:35 PM 41.5833 -87.8333 304° West 224 258 4,000  Level Chicago TRACON
Fri 12:46:29 PM 41.6167 -87.9000 360° North 226 260 4,000 -694 Level Chicago TRACON
Fri 12:47:36 PM 41.6667 -87.9000 37° Northeast 201 231 2,600 -722 Descending Chicago TRACON
Fri 12:48:42 PM 41.7167 -87.8500 48° Northeast 181 208 2,400 -571 Descending Chicago TRACON
Fri 12:49:42 PM 41.7500 -87.8000 48° Northeast 181 208 1,400 -1,000 Descending Chicago TRACON

Login

Don't have an account? Register now (free) for customized features, flight alerts, and more!